Terminal Aerodrome Forecast
Issued by NWS Memphis, TN

Home | Current Version | Previous Version | Text Only | Print | Product List | Glossary On
Versions: 1 2 3 4 5 6 7 8 9 10 11 12 13 14 15 16
155
FTUS44 KMEG 071131
TAFJBR
TAF
KJBR 071131Z 0712/0812 02005KT P6SM FEW025 BKN080
     FM071400 05008KT P6SM SCT030 BKN250
     FM080300 26006KT P6SM OVC060=

USA.gov is the U.S. government's official web portal to all federal, state and local government web resources and services.